Terminal Aerodrome Forecast
Issued by NWS

Home | Current Version | Previous Version | Text Only | Print | Product List | Glossary On
Versions: 1 2 3 4 5 6 7 8 9 10 11 12 13
000
FTUS45 KGJT 242324
TAFDRO
TAF
KDRO 242324Z 2500/2524 25017G24KT P6SM FEW250
     FM250200 31007KT P6SM FEW140 FEW250
     FM250800 VRB03KT P6SM FEW150 FEW250
     FM252100 24010G20KT P6SM SKC=

USA.gov is the U.S. government's official web portal to all federal, state and local government web resources and services.